sensor_id;sensor_type;location;lat;lon;timestamp;P1;durP1;ratioP1;P2;durP2;ratioP2
28836;SDS011;50669;50.982;11.022;2022-12-10T00:02:01;51.30;;;21.67;;
28836;SDS011;50669;50.982;11.022;2022-12-10T00:04:26;51.33;;;21.27;;
28836;SDS011;50669;50.982;11.022;2022-12-10T00:06:52;55.67;;;22.50;;
28836;SDS011;50669;50.982;11.022;2022-12-10T00:09:18;52.67;;;21.88;;
28836;SDS011;50669;50.982;11.022;2022-12-10T00:11:45;53.58;;;23.90;;
28836;SDS011;50669;50.982;11.022;2022-12-10T00:14:11;56.33;;;24.02;;
28836;SDS011;50669;50.982;11.022;2022-12-10T00:16:37;51.38;;;22.42;;
28836;SDS011;50669;50.982;11.022;2022-12-10T00:19:03;55.08;;;23.45;;
28836;SDS011;50669;50.982;11.022;2022-12-10T00:21:32;55.10;;;23.08;;
28836;SDS011;50669;50.982;11.022;2022-12-10T00:23:59;56.90;;;23.35;;
28836;SDS011;50669;50.982;11.022;2022-12-10T00:26:27;52.03;;;21.27;;
28836;SDS011;50669;50.982;11.022;2022-12-10T00:28:55;55.47;;;22.83;;
28836;SDS011;50669;50.982;11.022;2022-12-10T00:31:24;58.22;;;23.50;;
28836;SDS011;50669;50.982;11.022;2022-12-10T00:33:54;50.95;;;22.15;;
28836;SDS011;50669;50.982;11.022;2022-12-10T00:36:25;56.33;;;23.90;;
28836;SDS011;50669;50.982;11.022;2022-12-10T00:38:55;56.42;;;23.70;;
28836;SDS011;50669;50.982;11.022;2022-12-10T00:41:21;53.55;;;22.05;;
28836;SDS011;50669;50.982;11.022;2022-12-10T00:43:49;54.15;;;23.05;;
28836;SDS011;50669;50.982;11.022;2022-12-10T00:46:16;53.80;;;22.13;;
28836;SDS011;50669;50.982;11.022;2022-12-10T00:48:43;53.78;;;22.90;;
28836;SDS011;50669;50.982;11.022;2022-12-10T00:53:39;53.85;;;23.02;;
28836;SDS011;50669;50.982;11.022;2022-12-10T00:56:06;49.75;;;21.23;;
28836;SDS011;50669;50.982;11.022;2022-12-10T00:58:36;49.03;;;20.88;;
28836;SDS011;50669;50.982;11.022;2022-12-10T01:01:06;50.85;;;21.27;;
28836;SDS011;50669;50.982;11.022;2022-12-10T01:03:36;51.67;;;20.50;;
28836;SDS011;50669;50.982;11.022;2022-12-10T01:06:36;49.15;;;20.65;;
28836;SDS011;50669;50.982;11.022;2022-12-10T01:09:02;51.95;;;20.73;;
28836;SDS011;50669;50.982;11.022;2022-12-10T01:11:31;48.78;;;20.33;;
28836;SDS011;50669;50.982;11.022;2022-12-10T01:13:59;48.88;;;20.05;;
28836;SDS011;50669;50.982;11.022;2022-12-10T01:16:26;50.17;;;20.65;;
28836;SDS011;50669;50.982;11.022;2022-12-10T01:18:55;53.05;;;20.88;;
28836;SDS011;50669;50.982;11.022;2022-12-10T01:21:26;51.85;;;20.92;;
28836;SDS011;50669;50.982;11.022;2022-12-10T01:23:58;50.92;;;21.77;;
28836;SDS011;50669;50.982;11.022;2022-12-10T01:26:27;52.58;;;20.20;;
28836;SDS011;50669;50.982;11.022;2022-12-10T01:28:57;50.92;;;21.58;;
28836;SDS011;50669;50.982;11.022;2022-12-10T01:31:29;50.20;;;21.13;;
28836;SDS011;50669;50.982;11.022;2022-12-10T01:33:57;49.67;;;19.90;;
28836;SDS011;50669;50.982;11.022;2022-12-10T01:36:25;48.88;;;19.92;;
28836;SDS011;50669;50.982;11.022;2022-12-10T01:39:01;43.67;;;19.75;;
28836;SDS011;50669;50.982;11.022;2022-12-10T01:41:29;43.47;;;19.98;;
28836;SDS011;50669;50.982;11.022;2022-12-10T01:51:57;43.63;;;18.27;;
28836;SDS011;50669;50.982;11.022;2022-12-10T01:54:42;44.05;;;19.35;;
28836;SDS011;50669;50.982;11.022;2022-12-10T01:57:12;67.93;;;28.20;;
28836;SDS011;50669;50.982;11.022;2022-12-10T01:59:43;42.45;;;18.40;;
28836;SDS011;50669;50.982;11.022;2022-12-10T02:07:19;41.17;;;17.45;;
28836;SDS011;50669;50.982;11.022;2022-12-10T02:11:12;37.47;;;16.75;;
28836;SDS011;50669;50.982;11.022;2022-12-10T02:15:48;36.45;;;15.80;;
28836;SDS011;50669;50.982;11.022;2022-12-10T02:18:56;35.53;;;14.95;;
28836;SDS011;50669;50.982;11.022;2022-12-10T02:21:34;32.63;;;14.43;;
28836;SDS011;50669;50.982;11.022;2022-12-10T02:24:05;35.08;;;15.50;;
28836;SDS011;50669;50.982;11.022;2022-12-10T02:26:42;37.30;;;16.50;;
28836;SDS011;50669;50.982;11.022;2022-12-10T02:29:24;37.95;;;15.98;;
28836;SDS011;50669;50.982;11.022;2022-12-10T02:31:56;39.00;;;15.85;;
28836;SDS011;50669;50.982;11.022;2022-12-10T02:34:37;31.33;;;14.18;;
28836;SDS011;50669;50.982;11.022;2022-12-10T02:37:08;32.45;;;14.20;;
28836;SDS011;50669;50.982;11.022;2022-12-10T02:39:42;33.65;;;14.45;;
28836;SDS011;50669;50.982;11.022;2022-12-10T02:42:15;31.33;;;14.15;;
28836;SDS011;50669;50.982;11.022;2022-12-10T02:44:45;31.23;;;13.25;;
28836;SDS011;50669;50.982;11.022;2022-12-10T02:47:12;29.75;;;13.13;;
28836;SDS011;50669;50.982;11.022;2022-12-10T02:49:39;26.63;;;12.95;;
28836;SDS011;50669;50.982;11.022;2022-12-10T02:52:10;28.98;;;12.82;;
28836;SDS011;50669;50.982;11.022;2022-12-10T03:05:05;32.63;;;14.27;;
28836;SDS011;50669;50.982;11.022;2022-12-10T03:12:59;32.97;;;13.73;;
28836;SDS011;50669;50.982;11.022;2022-12-10T03:15:32;35.42;;;15.25;;
28836;SDS011;50669;50.982;11.022;2022-12-10T03:18:03;29.20;;;13.27;;
28836;SDS011;50669;50.982;11.022;2022-12-10T03:20:34;31.50;;;14.90;;
28836;SDS011;50669;50.982;11.022;2022-12-10T03:23:03;30.30;;;13.18;;
28836;SDS011;50669;50.982;11.022;2022-12-10T03:25:33;28.55;;;13.07;;
28836;SDS011;50669;50.982;11.022;2022-12-10T03:28:00;25.73;;;12.05;;
28836;SDS011;50669;50.982;11.022;2022-12-10T03:30:26;30.08;;;13.88;;
28836;SDS011;50669;50.982;11.022;2022-12-10T03:32:52;25.00;;;12.18;;
28836;SDS011;50669;50.982;11.022;2022-12-10T03:35:20;28.23;;;13.30;;
28836;SDS011;50669;50.982;11.022;2022-12-10T03:37:53;33.28;;;13.82;;
28836;SDS011;50669;50.982;11.022;2022-12-10T03:40:21;28.42;;;13.27;;
28836;SDS011;50669;50.982;11.022;2022-12-10T03:42:50;28.38;;;13.15;;
28836;SDS011;50669;50.982;11.022;2022-12-10T03:45:16;26.83;;;12.05;;
28836;SDS011;50669;50.982;11.022;2022-12-10T03:47:44;26.92;;;13.15;;
28836;SDS011;50669;50.982;11.022;2022-12-10T03:50:10;26.30;;;12.27;;
28836;SDS011;50669;50.982;11.022;2022-12-10T03:52:36;26.13;;;12.07;;
28836;SDS011;50669;50.982;11.022;2022-12-10T03:55:07;26.58;;;12.70;;
28836;SDS011;50669;50.982;11.022;2022-12-10T03:57:33;28.92;;;13.18;;
28836;SDS011;50669;50.982;11.022;2022-12-10T03:59:59;26.15;;;12.60;;
28836;SDS011;50669;50.982;11.022;2022-12-10T04:02:25;27.10;;;12.70;;
28836;SDS011;50669;50.982;11.022;2022-12-10T04:04:55;27.30;;;12.40;;
28836;SDS011;50669;50.982;11.022;2022-12-10T04:07:20;27.70;;;12.65;;
28836;SDS011;50669;50.982;11.022;2022-12-10T04:09:46;29.05;;;13.23;;
28836;SDS011;50669;50.982;11.022;2022-12-10T04:12:14;29.92;;;13.60;;
28836;SDS011;50669;50.982;11.022;2022-12-10T04:14:40;27.30;;;12.35;;
28836;SDS011;50669;50.982;11.022;2022-12-10T04:17:24;25.27;;;11.40;;
28836;SDS011;50669;50.982;11.022;2022-12-10T04:19:50;24.73;;;11.98;;
28836;SDS011;50669;50.982;11.022;2022-12-10T04:22:15;24.38;;;11.35;;
28836;SDS011;50669;50.982;11.022;2022-12-10T04:25:02;23.70;;;11.75;;
28836;SDS011;50669;50.982;11.022;2022-12-10T04:27:51;26.35;;;12.02;;
28836;SDS011;50669;50.982;11.022;2022-12-10T04:30:17;25.42;;;12.30;;
28836;SDS011;50669;50.982;11.022;2022-12-10T04:32:45;23.08;;;11.40;;
28836;SDS011;50669;50.982;11.022;2022-12-10T04:35:15;27.77;;;12.35;;
28836;SDS011;50669;50.982;11.022;2022-12-10T04:37:40;25.20;;;12.93;;
28836;SDS011;50669;50.982;11.022;2022-12-10T04:40:06;25.85;;;12.20;;
28836;SDS011;50669;50.982;11.022;2022-12-10T04:42:32;27.65;;;12.75;;
28836;SDS011;50669;50.982;11.022;2022-12-10T04:44:58;27.40;;;12.25;;
28836;SDS011;50669;50.982;11.022;2022-12-10T04:47:24;26.50;;;12.55;;
28836;SDS011;50669;50.982;11.022;2022-12-10T04:49:54;26.70;;;12.45;;
28836;SDS011;50669;50.982;11.022;2022-12-10T04:52:22;29.08;;;12.48;;
28836;SDS011;50669;50.982;11.022;2022-12-10T04:54:50;26.33;;;12.25;;
28836;SDS011;50669;50.982;11.022;2022-12-10T04:57:15;25.75;;;12.63;;
28836;SDS011;50669;50.982;11.022;2022-12-10T04:59:44;27.08;;;12.18;;
28836;SDS011;50669;50.982;11.022;2022-12-10T05:02:09;27.92;;;12.88;;
28836;SDS011;50669;50.982;11.022;2022-12-10T05:04:35;29.70;;;13.02;;
28836;SDS011;50669;50.982;11.022;2022-12-10T05:07:01;25.45;;;12.27;;
28836;SDS011;50669;50.982;11.022;2022-12-10T05:09:27;27.08;;;12.52;;
28836;SDS011;50669;50.982;11.022;2022-12-10T05:11:54;27.88;;;12.73;;
28836;SDS011;50669;50.982;11.022;2022-12-10T05:14:20;28.80;;;12.95;;
28836;SDS011;50669;50.982;11.022;2022-12-10T05:16:49;25.33;;;12.10;;
28836;SDS011;50669;50.982;11.022;2022-12-10T05:19:18;28.23;;;12.40;;
28836;SDS011;50669;50.982;11.022;2022-12-10T05:21:48;31.25;;;14.73;;
28836;SDS011;50669;50.982;11.022;2022-12-10T05:24:33;27.48;;;12.85;;
28836;SDS011;50669;50.982;11.022;2022-12-10T05:27:01;27.98;;;13.10;;
28836;SDS011;50669;50.982;11.022;2022-12-10T05:29:27;28.27;;;12.50;;
28836;SDS011;50669;50.982;11.022;2022-12-10T05:31:52;28.40;;;13.45;;
28836;SDS011;50669;50.982;11.022;2022-12-10T05:34:18;27.35;;;12.38;;
28836;SDS011;50669;50.982;11.022;2022-12-10T05:36:44;29.25;;;13.15;;
28836;SDS011;50669;50.982;11.022;2022-12-10T05:39:11;23.98;;;12.00;;
28836;SDS011;50669;50.982;11.022;2022-12-10T05:41:38;24.67;;;12.10;;
28836;SDS011;50669;50.982;11.022;2022-12-10T05:44:06;27.42;;;11.75;;
28836;SDS011;50669;50.982;11.022;2022-12-10T05:46:36;26.08;;;11.93;;
28836;SDS011;50669;50.982;11.022;2022-12-10T05:49:04;27.20;;;12.40;;
28836;SDS011;50669;50.982;11.022;2022-12-10T05:51:32;28.08;;;12.68;;
28836;SDS011;50669;50.982;11.022;2022-12-10T05:53:59;29.88;;;13.52;;
28836;SDS011;50669;50.982;11.022;2022-12-10T05:56:26;29.92;;;13.50;;
28836;SDS011;50669;50.982;11.022;2022-12-10T05:58:56;26.67;;;12.90;;
28836;SDS011;50669;50.982;11.022;2022-12-10T06:01:25;28.80;;;13.23;;
28836;SDS011;50669;50.982;11.022;2022-12-10T06:03:54;26.15;;;13.05;;
28836;SDS011;50669;50.982;11.022;2022-12-10T06:06:23;27.42;;;13.40;;
28836;SDS011;50669;50.982;11.022;2022-12-10T06:08:53;29.23;;;13.13;;
28836;SDS011;50669;50.982;11.022;2022-12-10T06:11:20;28.00;;;12.75;;
28836;SDS011;50669;50.982;11.022;2022-12-10T06:13:46;25.10;;;12.07;;
28836;SDS011;50669;50.982;11.022;2022-12-10T06:16:13;28.65;;;12.68;;
28836;SDS011;50669;50.982;11.022;2022-12-10T06:18:40;25.15;;;12.63;;
28836;SDS011;50669;50.982;11.022;2022-12-10T06:21:09;26.00;;;11.57;;
28836;SDS011;50669;50.982;11.022;2022-12-10T06:23:37;27.52;;;12.93;;
28836;SDS011;50669;50.982;11.022;2022-12-10T06:26:14;28.80;;;12.15;;
28836;SDS011;50669;50.982;11.022;2022-12-10T06:28:41;28.52;;;13.23;;
28836;SDS011;50669;50.982;11.022;2022-12-10T06:31:09;28.02;;;13.45;;
28836;SDS011;50669;50.982;11.022;2022-12-10T06:33:35;26.85;;;12.48;;
28836;SDS011;50669;50.982;11.022;2022-12-10T06:36:02;29.17;;;12.85;;
28836;SDS011;50669;50.982;11.022;2022-12-10T06:38:32;18.27;;;9.70;;
28836;SDS011;50669;50.982;11.022;2022-12-10T06:40:59;27.77;;;12.57;;
28836;SDS011;50669;50.982;11.022;2022-12-10T06:43:27;27.38;;;12.75;;
28836;SDS011;50669;50.982;11.022;2022-12-10T06:45:53;29.98;;;13.90;;
28836;SDS011;50669;50.982;11.022;2022-12-10T06:48:19;30.02;;;12.95;;
28836;SDS011;50669;50.982;11.022;2022-12-10T06:50:45;26.38;;;12.38;;
28836;SDS011;50669;50.982;11.022;2022-12-10T06:53:10;30.05;;;14.13;;
28836;SDS011;50669;50.982;11.022;2022-12-10T06:55:38;32.17;;;16.55;;
28836;SDS011;50669;50.982;11.022;2022-12-10T06:58:06;30.70;;;15.48;;
28836;SDS011;50669;50.982;11.022;2022-12-10T07:00:34;29.05;;;14.68;;
28836;SDS011;50669;50.982;11.022;2022-12-10T07:03:02;30.60;;;14.48;;
28836;SDS011;50669;50.982;11.022;2022-12-10T07:05:28;31.00;;;14.52;;
28836;SDS011;50669;50.982;11.022;2022-12-10T07:07:53;32.13;;;15.05;;
28836;SDS011;50669;50.982;11.022;2022-12-10T07:10:21;29.55;;;13.80;;
28836;SDS011;50669;50.982;11.022;2022-12-10T07:12:47;29.35;;;13.95;;
28836;SDS011;50669;50.982;11.022;2022-12-10T07:15:15;33.65;;;14.18;;
28836;SDS011;50669;50.982;11.022;2022-12-10T07:17:41;31.98;;;14.77;;
28836;SDS011;50669;50.982;11.022;2022-12-10T07:20:07;30.73;;;13.65;;
28836;SDS011;50669;50.982;11.022;2022-12-10T07:22:33;32.00;;;14.75;;
28836;SDS011;50669;50.982;11.022;2022-12-10T07:25:01;31.45;;;15.00;;
28836;SDS011;50669;50.982;11.022;2022-12-10T07:27:29;33.50;;;13.95;;
28836;SDS011;50669;50.982;11.022;2022-12-10T07:29:56;36.83;;;14.85;;
28836;SDS011;50669;50.982;11.022;2022-12-10T07:32:22;32.95;;;13.85;;
28836;SDS011;50669;50.982;11.022;2022-12-10T07:34:47;35.25;;;15.73;;
28836;SDS011;50669;50.982;11.022;2022-12-10T07:37:13;31.80;;;13.57;;
28836;SDS011;50669;50.982;11.022;2022-12-10T07:39:39;29.77;;;12.95;;
28836;SDS011;50669;50.982;11.022;2022-12-10T07:42:04;35.08;;;14.75;;
28836;SDS011;50669;50.982;11.022;2022-12-10T07:44:30;33.50;;;15.13;;
28836;SDS011;50669;50.982;11.022;2022-12-10T07:46:56;35.60;;;14.57;;
28836;SDS011;50669;50.982;11.022;2022-12-10T07:49:21;36.72;;;14.63;;
28836;SDS011;50669;50.982;11.022;2022-12-10T07:51:50;33.33;;;14.60;;
28836;SDS011;50669;50.982;11.022;2022-12-10T07:54:16;35.40;;;16.20;;
28836;SDS011;50669;50.982;11.022;2022-12-10T07:56:42;37.78;;;15.63;;
28836;SDS011;50669;50.982;11.022;2022-12-10T07:59:08;35.72;;;15.55;;
28836;SDS011;50669;50.982;11.022;2022-12-10T08:01:36;30.98;;;14.57;;
28836;SDS011;50669;50.982;11.022;2022-12-10T08:04:02;32.47;;;14.65;;
28836;SDS011;50669;50.982;11.022;2022-12-10T08:06:28;33.33;;;14.27;;
28836;SDS011;50669;50.982;11.022;2022-12-10T08:08:57;34.50;;;14.70;;
28836;SDS011;50669;50.982;11.022;2022-12-10T08:11:26;37.55;;;15.75;;
28836;SDS011;50669;50.982;11.022;2022-12-10T08:13:52;35.28;;;15.07;;
28836;SDS011;50669;50.982;11.022;2022-12-10T08:16:19;31.63;;;14.60;;
28836;SDS011;50669;50.982;11.022;2022-12-10T08:18:50;34.25;;;13.95;;
28836;SDS011;50669;50.982;11.022;2022-12-10T08:21:19;32.45;;;14.05;;
28836;SDS011;50669;50.982;11.022;2022-12-10T08:23:47;34.38;;;14.98;;
28836;SDS011;50669;50.982;11.022;2022-12-10T08:26:16;36.28;;;15.07;;
28836;SDS011;50669;50.982;11.022;2022-12-10T08:28:44;36.03;;;15.20;;
28836;SDS011;50669;50.982;11.022;2022-12-10T08:31:11;34.90;;;15.60;;
28836;SDS011;50669;50.982;11.022;2022-12-10T08:33:38;38.25;;;14.75;;
28836;SDS011;50669;50.982;11.022;2022-12-10T08:36:04;36.72;;;15.20;;
28836;SDS011;50669;50.982;11.022;2022-12-10T08:38:31;36.03;;;15.80;;
28836;SDS011;50669;50.982;11.022;2022-12-10T08:40:57;38.25;;;16.00;;
28836;SDS011;50669;50.982;11.022;2022-12-10T08:43:32;35.92;;;16.40;;
28836;SDS011;50669;50.982;11.022;2022-12-10T08:46:03;34.88;;;15.98;;
28836;SDS011;50669;50.982;11.022;2022-12-10T08:48:29;39.70;;;16.58;;
28836;SDS011;50669;50.982;11.022;2022-12-10T08:50:55;36.95;;;15.55;;
28836;SDS011;50669;50.982;11.022;2022-12-10T08:53:21;35.28;;;15.13;;
28836;SDS011;50669;50.982;11.022;2022-12-10T08:55:49;37.25;;;15.50;;
28836;SDS011;50669;50.982;11.022;2022-12-10T08:58:18;41.85;;;16.73;;
28836;SDS011;50669;50.982;11.022;2022-12-10T09:00:44;35.10;;;14.75;;
28836;SDS011;50669;50.982;11.022;2022-12-10T09:03:11;42.00;;;17.35;;
28836;SDS011;50669;50.982;11.022;2022-12-10T09:05:40;38.67;;;16.70;;
28836;SDS011;50669;50.982;11.022;2022-12-10T09:08:06;35.38;;;16.02;;
28836;SDS011;50669;50.982;11.022;2022-12-10T09:10:34;38.08;;;15.35;;
28836;SDS011;50669;50.982;11.022;2022-12-10T09:13:01;39.67;;;16.38;;
28836;SDS011;50669;50.982;11.022;2022-12-10T09:15:29;39.38;;;16.88;;
28836;SDS011;50669;50.982;11.022;2022-12-10T09:17:59;34.38;;;15.10;;
28836;SDS011;50669;50.982;11.022;2022-12-10T09:20:27;35.08;;;15.45;;
28836;SDS011;50669;50.982;11.022;2022-12-10T09:22:55;36.97;;;17.65;;
28836;SDS011;50669;50.982;11.022;2022-12-10T09:25:21;37.72;;;16.83;;
28836;SDS011;50669;50.982;11.022;2022-12-10T09:27:47;41.95;;;17.73;;
28836;SDS011;50669;50.982;11.022;2022-12-10T09:30:15;39.53;;;17.63;;
28836;SDS011;50669;50.982;11.022;2022-12-10T09:32:41;39.03;;;16.95;;
28836;SDS011;50669;50.982;11.022;2022-12-10T09:35:07;41.97;;;17.58;;
28836;SDS011;50669;50.982;11.022;2022-12-10T09:37:32;47.85;;;19.38;;
28836;SDS011;50669;50.982;11.022;2022-12-10T09:40:00;45.00;;;20.30;;
28836;SDS011;50669;50.982;11.022;2022-12-10T09:51:18;42.22;;;17.08;;
28836;SDS011;50669;50.982;11.022;2022-12-10T09:53:49;39.13;;;15.43;;
28836;SDS011;50669;50.982;11.022;2022-12-10T09:56:24;39.08;;;16.55;;
28836;SDS011;50669;50.982;11.022;2022-12-10T09:59:22;37.88;;;16.60;;
28836;SDS011;50669;50.982;11.022;2022-12-10T10:01:57;37.97;;;17.98;;
28836;SDS011;50669;50.982;11.022;2022-12-10T10:04:27;42.13;;;17.25;;
28836;SDS011;50669;50.982;11.022;2022-12-10T10:06:53;40.17;;;18.02;;
28836;SDS011;50669;50.982;11.022;2022-12-10T10:09:19;46.97;;;19.23;;
28836;SDS011;50669;50.982;11.022;2022-12-10T10:11:49;43.30;;;18.88;;
28836;SDS011;50669;50.982;11.022;2022-12-10T10:14:18;40.92;;;18.38;;
28836;SDS011;50669;50.982;11.022;2022-12-10T10:16:51;36.25;;;16.30;;
28836;SDS011;50669;50.982;11.022;2022-12-10T10:19:27;42.38;;;18.58;;
28836;SDS011;50669;50.982;11.022;2022-12-10T10:21:56;41.45;;;18.15;;
28836;SDS011;50669;50.982;11.022;2022-12-10T10:24:31;39.85;;;18.52;;
28836;SDS011;50669;50.982;11.022;2022-12-10T10:29:41;42.78;;;18.33;;
28836;SDS011;50669;50.982;11.022;2022-12-10T10:32:18;42.70;;;18.58;;
28836;SDS011;50669;50.982;11.022;2022-12-10T10:34:47;42.65;;;19.17;;
28836;SDS011;50669;50.982;11.022;2022-12-10T10:37:21;43.03;;;18.20;;
28836;SDS011;50669;50.982;11.022;2022-12-10T10:39:54;42.60;;;18.23;;
28836;SDS011;50669;50.982;11.022;2022-12-10T10:45:06;43.00;;;19.27;;
28836;SDS011;50669;50.982;11.022;2022-12-10T10:48:04;42.63;;;18.90;;
28836;SDS011;50669;50.982;11.022;2022-12-10T10:50:42;41.65;;;18.40;;
28836;SDS011;50669;50.982;11.022;2022-12-10T10:53:29;43.58;;;20.33;;
28836;SDS011;50669;50.982;11.022;2022-12-10T11:01:26;42.53;;;19.67;;
28836;SDS011;50669;50.982;11.022;2022-12-10T11:06:36;43.17;;;18.42;;
28836;SDS011;50669;50.982;11.022;2022-12-10T11:09:02;42.53;;;18.75;;
28836;SDS011;50669;50.982;11.022;2022-12-10T11:14:12;42.45;;;17.77;;
28836;SDS011;50669;50.982;11.022;2022-12-10T11:16:49;41.38;;;17.85;;
28836;SDS011;50669;50.982;11.022;2022-12-10T11:19:22;40.22;;;18.08;;
28836;SDS011;50669;50.982;11.022;2022-12-10T11:21:48;44.67;;;18.92;;
28836;SDS011;50669;50.982;11.022;2022-12-10T11:24:16;42.65;;;18.38;;
28836;SDS011;50669;50.982;11.022;2022-12-10T11:50:44;22.48;;;10.48;;
28836;SDS011;50669;50.982;11.022;2022-12-10T12:04:30;35.90;;;16.33;;
28836;SDS011;50669;50.982;11.022;2022-12-10T12:12:39;36.33;;;17.05;;
28836;SDS011;50669;50.982;11.022;2022-12-10T12:20:43;38.50;;;17.52;;
28836;SDS011;50669;50.982;11.022;2022-12-10T12:25:53;39.17;;;17.20;;
28836;SDS011;50669;50.982;11.022;2022-12-10T12:29:05;36.47;;;17.10;;
28836;SDS011;50669;50.982;11.022;2022-12-10T12:31:37;30.85;;;14.25;;
28836;SDS011;50669;50.982;11.022;2022-12-10T12:34:17;37.33;;;16.55;;
28836;SDS011;50669;50.982;11.022;2022-12-10T12:36:49;36.55;;;18.25;;
28836;SDS011;50669;50.982;11.022;2022-12-10T12:42:15;37.38;;;16.02;;
28836;SDS011;50669;50.982;11.022;2022-12-10T12:53:11;33.10;;;14.90;;
28836;SDS011;50669;50.982;11.022;2022-12-10T12:55:43;31.63;;;15.00;;
28836;SDS011;50669;50.982;11.022;2022-12-10T13:00:35;33.08;;;15.00;;
28836;SDS011;50669;50.982;11.022;2022-12-10T13:03:17;33.97;;;16.45;;
28836;SDS011;50669;50.982;11.022;2022-12-10T13:14:32;38.33;;;16.95;;
28836;SDS011;50669;50.982;11.022;2022-12-10T13:19:34;37.65;;;16.60;;
28836;SDS011;50669;50.982;11.022;2022-12-10T13:22:10;41.53;;;18.65;;
28836;SDS011;50669;50.982;11.022;2022-12-10T13:27:54;41.50;;;18.15;;
28836;SDS011;50669;50.982;11.022;2022-12-10T13:30:27;41.97;;;18.30;;
28836;SDS011;50669;50.982;11.022;2022-12-10T13:33:13;38.63;;;17.52;;
28836;SDS011;50669;50.982;11.022;2022-12-10T13:35:48;40.28;;;17.90;;
28836;SDS011;50669;50.982;11.022;2022-12-10T13:38:22;36.92;;;17.48;;
28836;SDS011;50669;50.982;11.022;2022-12-10T13:41:00;38.20;;;17.98;;
28836;SDS011;50669;50.982;11.022;2022-12-10T13:43:53;43.75;;;18.35;;
28836;SDS011;50669;50.982;11.022;2022-12-10T13:49:26;41.75;;;17.85;;
28836;SDS011;50669;50.982;11.022;2022-12-10T13:51:58;44.03;;;19.30;;
28836;SDS011;50669;50.982;11.022;2022-12-10T13:54:30;45.15;;;18.90;;
28836;SDS011;50669;50.982;11.022;2022-12-10T14:00:17;39.50;;;17.35;;
28836;SDS011;50669;50.982;11.022;2022-12-10T14:08:35;43.53;;;18.02;;
28836;SDS011;50669;50.982;11.022;2022-12-10T14:11:04;43.58;;;17.92;;
28836;SDS011;50669;50.982;11.022;2022-12-10T14:13:44;138.38;;;57.47;;
28836;SDS011;50669;50.982;11.022;2022-12-10T14:16:17;44.22;;;18.58;;
28836;SDS011;50669;50.982;11.022;2022-12-10T14:18:52;45.03;;;18.35;;
28836;SDS011;50669;50.982;11.022;2022-12-10T14:21:39;47.80;;;20.55;;
28836;SDS011;50669;50.982;11.022;2022-12-10T14:24:11;39.95;;;19.60;;
28836;SDS011;50669;50.982;11.022;2022-12-10T14:27:13;43.40;;;19.38;;
28836;SDS011;50669;50.982;11.022;2022-12-10T14:29:48;45.72;;;19.77;;
28836;SDS011;50669;50.982;11.022;2022-12-10T14:32:26;44.35;;;18.35;;
28836;SDS011;50669;50.982;11.022;2022-12-10T14:35:04;45.03;;;19.15;;
28836;SDS011;50669;50.982;11.022;2022-12-10T14:37:34;45.17;;;20.63;;
28836;SDS011;50669;50.982;11.022;2022-12-10T14:40:06;45.47;;;20.20;;
28836;SDS011;50669;50.982;11.022;2022-12-10T14:42:44;44.20;;;19.45;;
28836;SDS011;50669;50.982;11.022;2022-12-10T14:45:11;43.60;;;19.85;;
28836;SDS011;50669;50.982;11.022;2022-12-10T14:47:42;45.57;;;20.87;;
28836;SDS011;50669;50.982;11.022;2022-12-10T14:50:11;45.55;;;20.35;;
28836;SDS011;50669;50.982;11.022;2022-12-10T14:52:41;47.30;;;21.38;;
28836;SDS011;50669;50.982;11.022;2022-12-10T14:55:11;46.30;;;21.30;;
28836;SDS011;50669;50.982;11.022;2022-12-10T14:57:44;48.28;;;21.35;;
28836;SDS011;50669;50.982;11.022;2022-12-10T15:00:24;47.90;;;20.85;;
28836;SDS011;50669;50.982;11.022;2022-12-10T15:03:11;45.45;;;20.55;;
28836;SDS011;50669;50.982;11.022;2022-12-10T15:05:38;45.97;;;20.33;;
28836;SDS011;50669;50.982;11.022;2022-12-10T15:08:13;39.55;;;17.27;;
28836;SDS011;50669;50.982;11.022;2022-12-10T15:10:41;44.70;;;19.58;;
28836;SDS011;50669;50.982;11.022;2022-12-10T15:16:06;57.92;;;24.70;;
28836;SDS011;50669;50.982;11.022;2022-12-10T15:18:44;45.58;;;19.48;;
28836;SDS011;50669;50.982;11.022;2022-12-10T15:21:19;44.05;;;19.98;;
28836;SDS011;50669;50.982;11.022;2022-12-10T15:23:50;41.17;;;18.55;;
28836;SDS011;50669;50.982;11.022;2022-12-10T15:26:34;41.97;;;18.83;;
28836;SDS011;50669;50.982;11.022;2022-12-10T15:29:28;41.22;;;17.75;;
28836;SDS011;50669;50.982;11.022;2022-12-10T15:31:59;41.88;;;18.98;;
28836;SDS011;50669;50.982;11.022;2022-12-10T15:34:29;42.72;;;19.40;;
28836;SDS011;50669;50.982;11.022;2022-12-10T15:36:59;43.10;;;19.50;;
28836;SDS011;50669;50.982;11.022;2022-12-10T15:39:28;44.63;;;19.05;;
28836;SDS011;50669;50.982;11.022;2022-12-10T15:42:00;44.13;;;19.73;;
28836;SDS011;50669;50.982;11.022;2022-12-10T15:44:32;41.22;;;18.42;;
28836;SDS011;50669;50.982;11.022;2022-12-10T15:49:44;46.20;;;20.63;;
28836;SDS011;50669;50.982;11.022;2022-12-10T15:52:13;45.85;;;20.35;;
28836;SDS011;50669;50.982;11.022;2022-12-10T15:54:41;48.15;;;21.05;;
28836;SDS011;50669;50.982;11.022;2022-12-10T15:57:24;46.33;;;20.63;;
28836;SDS011;50669;50.982;11.022;2022-12-10T15:59:59;44.70;;;19.58;;
28836;SDS011;50669;50.982;11.022;2022-12-10T16:05:02;50.33;;;24.05;;
28836;SDS011;50669;50.982;11.022;2022-12-10T16:07:36;50.13;;;22.27;;
28836;SDS011;50669;50.982;11.022;2022-12-10T16:10:02;50.03;;;21.00;;
28836;SDS011;50669;50.982;11.022;2022-12-10T16:12:28;49.10;;;22.67;;
28836;SDS011;50669;50.982;11.022;2022-12-10T16:14:54;48.97;;;23.27;;
28836;SDS011;50669;50.982;11.022;2022-12-10T16:17:24;48.50;;;22.55;;
28836;SDS011;50669;50.982;11.022;2022-12-10T16:20:09;46.35;;;21.15;;
28836;SDS011;50669;50.982;11.022;2022-12-10T16:22:48;49.50;;;21.33;;
28836;SDS011;50669;50.982;11.022;2022-12-10T16:25:16;48.42;;;21.30;;
28836;SDS011;50669;50.982;11.022;2022-12-10T16:27:45;49.63;;;20.95;;
28836;SDS011;50669;50.982;11.022;2022-12-10T16:32:38;50.50;;;22.85;;
28836;SDS011;50669;50.982;11.022;2022-12-10T16:35:06;51.22;;;22.25;;
28836;SDS011;50669;50.982;11.022;2022-12-10T16:37:32;50.65;;;22.75;;
28836;SDS011;50669;50.982;11.022;2022-12-10T16:39:58;47.88;;;20.60;;
28836;SDS011;50669;50.982;11.022;2022-12-10T16:42:23;50.00;;;22.08;;
28836;SDS011;50669;50.982;11.022;2022-12-10T16:44:54;47.63;;;21.73;;
28836;SDS011;50669;50.982;11.022;2022-12-10T16:47:20;44.83;;;19.63;;
28836;SDS011;50669;50.982;11.022;2022-12-10T16:49:46;46.42;;;20.90;;
28836;SDS011;50669;50.982;11.022;2022-12-10T16:52:15;49.15;;;21.55;;
28836;SDS011;50669;50.982;11.022;2022-12-10T16:54:40;44.83;;;19.83;;
28836;SDS011;50669;50.982;11.022;2022-12-10T16:57:13;42.83;;;18.92;;
28836;SDS011;50669;50.982;11.022;2022-12-10T16:59:39;39.70;;;17.40;;
28836;SDS011;50669;50.982;11.022;2022-12-10T17:02:10;48.72;;;20.65;;
28836;SDS011;50669;50.982;11.022;2022-12-10T17:04:42;48.20;;;22.08;;
28836;SDS011;50669;50.982;11.022;2022-12-10T17:07:09;48.08;;;20.70;;